sensor_id;sensor_type;location;lat;lon;timestamp;pressure;altitude;pressure_sealevel;temperature;humidity
75747;BME280;70632;52.232;21.038;2024-02-26T02:05:20;99382.13;;;6.36;92.87
75747;BME280;70632;52.232;21.038;2024-02-26T02:07:46;99372.56;;;6.43;91.79
75747;BME280;70632;52.232;21.038;2024-02-26T02:10:15;99378.06;;;6.41;91.99
75747;BME280;70632;52.232;21.038;2024-02-26T02:12:41;99370.72;;;6.43;92.13
75747;BME280;70632;52.232;21.038;2024-02-26T02:15:07;99377.47;;;6.49;90.98
75747;BME280;70632;52.232;21.038;2024-02-26T02:17:34;99372.94;;;6.38;91.23
75747;BME280;70632;52.232;21.038;2024-02-26T02:19:59;99382.97;;;6.36;91.89
75747;BME280;70632;52.232;21.038;2024-02-26T02:22:26;99384.56;;;6.39;91.54
75747;BME280;70632;52.232;21.038;2024-02-26T02:24:52;99390.31;;;6.34;91.50
75747;BME280;70632;52.232;21.038;2024-02-26T02:27:19;99391.63;;;6.29;91.64
75747;BME280;70632;52.232;21.038;2024-02-26T02:29:45;99392.75;;;6.37;91.79
75747;BME280;70632;52.232;21.038;2024-02-26T02:32:12;99388.34;;;6.48;91.65
75747;BME280;70632;52.232;21.038;2024-02-26T02:34:39;99387.75;;;6.44;91.91
75747;BME280;70632;52.232;21.038;2024-02-26T02:37:04;99393.25;;;6.42;92.25
75747;BME280;70632;52.232;21.038;2024-02-26T02:39:30;99396.66;;;6.33;93.19
75747;BME280;70632;52.232;21.038;2024-02-26T02:41:56;99386.50;;;6.37;93.30
75747;BME280;70632;52.232;21.038;2024-02-26T02:44:21;99396.13;;;6.17;94.35
75747;BME280;70632;52.232;21.038;2024-02-26T02:46:47;99394.34;;;5.93;96.29
75747;BME280;70632;52.232;21.038;2024-02-26T02:49:13;99397.59;;;5.74;98.00
75747;BME280;70632;52.232;21.038;2024-02-26T02:51:39;99403.66;;;5.65;98.85
75747;BME280;70632;52.232;21.038;2024-02-26T02:54:05;99396.78;;;5.61;99.05
75747;BME280;70632;52.232;21.038;2024-02-26T02:56:31;99393.59;;;5.56;99.75
75747;BME280;70632;52.232;21.038;2024-02-26T02:58:57;99409.00;;;5.54;99.75
75747;BME280;70632;52.232;21.038;2024-02-26T03:01:22;99410.59;;;5.56;99.94
75747;BME280;70632;52.232;21.038;2024-02-26T03:03:48;99417.06;;;5.54;99.83
75747;BME280;70632;52.232;21.038;2024-02-26T03:06:14;99405.03;;;5.47;100.00
75747;BME280;70632;52.232;21.038;2024-02-26T03:08:40;99417.84;;;5.43;100.00
75747;BME280;70632;52.232;21.038;2024-02-26T03:11:07;99421.63;;;5.40;100.00
75747;BME280;70632;52.232;21.038;2024-02-26T03:13:32;99415.22;;;5.30;100.00
75747;BME280;70632;52.232;21.038;2024-02-26T03:16:04;99423.22;;;5.19;100.00
75747;BME280;70632;52.232;21.038;2024-02-26T03:18:30;99425.16;;;5.17;100.00
75747;BME280;70632;52.232;21.038;2024-02-26T03:20:55;99424.41;;;5.15;100.00
75747;BME280;70632;52.232;21.038;2024-02-26T03:23:21;99414.97;;;5.09;100.00
75747;BME280;70632;52.232;21.038;2024-02-26T03:25:47;99423.66;;;5.13;100.00
75747;BME280;70632;52.232;21.038;2024-02-26T03:28:13;99417.19;;;5.15;100.00
75747;BME280;70632;52.232;21.038;2024-02-26T03:30:39;99432.56;;;5.13;100.00
75747;BME280;70632;52.232;21.038;2024-02-26T03:33:05;99429.13;;;5.11;100.00
75747;BME280;70632;52.232;21.038;2024-02-26T03:35:31;99426.22;;;5.14;100.00
75747;BME280;70632;52.232;21.038;2024-02-26T03:37:56;99425.47;;;5.12;100.00
75747;BME280;70632;52.232;21.038;2024-02-26T03:40:22;99425.81;;;5.08;100.00
75747;BME280;70632;52.232;21.038;2024-02-26T03:42:48;99431.72;;;5.00;100.00
75747;BME280;70632;52.232;21.038;2024-02-26T03:45:14;99425.06;;;5.06;100.00
75747;BME280;70632;52.232;21.038;2024-02-26T03:47:40;99413.75;;;5.13;100.00
75747;BME280;70632;52.232;21.038;2024-02-26T03:50:06;99423.66;;;5.13;100.00
75747;BME280;70632;52.232;21.038;2024-02-26T03:52:33;99421.28;;;5.08;100.00
75747;BME280;70632;52.232;21.038;2024-02-26T03:54:59;99424.31;;;5.03;100.00
75747;BME280;70632;52.232;21.038;2024-02-26T03:57:25;99415.50;;;5.01;100.00
75747;BME280;70632;52.232;21.038;2024-02-26T03:59:51;99422.19;;;4.96;100.00
75747;BME280;70632;52.232;21.038;2024-02-26T04:02:17;99421.13;;;4.98;100.00
75747;BME280;70632;52.232;21.038;2024-02-26T04:04:46;99422.06;;;4.97;100.00
75747;BME280;70632;52.232;21.038;2024-02-26T04:07:11;99419.72;;;4.93;100.00
75747;BME280;70632;52.232;21.038;2024-02-26T04:09:38;99420.81;;;4.90;100.00
75747;BME280;70632;52.232;21.038;2024-02-26T04:12:04;99425.44;;;4.88;100.00
75747;BME280;70632;52.232;21.038;2024-02-26T04:14:30;99425.19;;;4.91;100.00
75747;BME280;70632;52.232;21.038;2024-02-26T04:16:56;99419.81;;;4.91;100.00
75747;BME280;70632;52.232;21.038;2024-02-26T04:19:22;99422.00;;;4.86;100.00
75747;BME280;70632;52.232;21.038;2024-02-26T04:21:47;99423.19;;;4.82;100.00
75747;BME280;70632;52.232;21.038;2024-02-26T04:24:13;99419.53;;;4.83;100.00
75747;BME280;70632;52.232;21.038;2024-02-26T04:26:39;99418.34;;;4.87;100.00
75747;BME280;70632;52.232;21.038;2024-02-26T04:29:05;99415.66;;;4.87;100.00
75747;BME280;70632;52.232;21.038;2024-02-26T04:31:30;99417.81;;;4.82;100.00
75747;BME280;70632;52.232;21.038;2024-02-26T04:33:58;99417.88;;;4.93;100.00
75747;BME280;70632;52.232;21.038;2024-02-26T04:36:24;99416.81;;;4.96;100.00
75747;BME280;70632;52.232;21.038;2024-02-26T04:38:51;99406.28;;;4.93;100.00
75747;BME280;70632;52.232;21.038;2024-02-26T04:41:17;99415.00;;;4.96;100.00
75747;BME280;70632;52.232;21.038;2024-02-26T04:43:43;99413.06;;;4.98;100.00
75747;BME280;70632;52.232;21.038;2024-02-26T04:46:09;99413.38;;;4.94;100.00
75747;BME280;70632;52.232;21.038;2024-02-26T04:48:35;99414.88;;;4.98;100.00
75747;BME280;70632;52.232;21.038;2024-02-26T04:51:01;99423.72;;;4.87;100.00
75747;BME280;70632;52.232;21.038;2024-02-26T04:53:27;99422.97;;;4.85;100.00
75747;BME280;70632;52.232;21.038;2024-02-26T04:55:53;99417.69;;;4.83;100.00
75747;BME280;70632;52.232;21.038;2024-02-26T04:58:19;99415.88;;;4.84;100.00
75747;BME280;70632;52.232;21.038;2024-02-26T05:00:44;99418.13;;;4.90;100.00
75747;BME280;70632;52.232;21.038;2024-02-26T05:03:10;99425.31;;;4.90;100.00
75747;BME280;70632;52.232;21.038;2024-02-26T05:05:39;99428.31;;;4.85;100.00
75747;BME280;70632;52.232;21.038;2024-02-26T05:08:06;99428.03;;;4.77;100.00
75747;BME280;70632;52.232;21.038;2024-02-26T05:10:33;99419.88;;;4.66;100.00
75747;BME280;70632;52.232;21.038;2024-02-26T05:12:59;99427.72;;;4.69;100.00
75747;BME280;70632;52.232;21.038;2024-02-26T05:15:25;99430.19;;;4.72;100.00
75747;BME280;70632;52.232;21.038;2024-02-26T05:17:51;99430.25;;;4.83;100.00
75747;BME280;70632;52.232;21.038;2024-02-26T05:20:18;99426.06;;;4.92;100.00
75747;BME280;70632;52.232;21.038;2024-02-26T05:22:44;99421.78;;;4.89;100.00
75747;BME280;70632;52.232;21.038;2024-02-26T05:25:09;99428.44;;;4.83;100.00
75747;BME280;70632;52.232;21.038;2024-02-26T05:27:35;99439.63;;;4.90;100.00
75747;BME280;70632;52.232;21.038;2024-02-26T05:30:01;99439.06;;;4.85;100.00
75747;BME280;70632;52.232;21.038;2024-02-26T05:32:27;99442.16;;;4.92;100.00
75747;BME280;70632;52.232;21.038;2024-02-26T05:34:53;99446.25;;;4.97;100.00
75747;BME280;70632;52.232;21.038;2024-02-26T05:37:18;99446.94;;;4.88;100.00
75747;BME280;70632;52.232;21.038;2024-02-26T05:39:44;99443.94;;;4.80;100.00
75747;BME280;70632;52.232;21.038;2024-02-26T05:42:10;99449.84;;;4.72;100.00
75747;BME280;70632;52.232;21.038;2024-02-26T05:44:35;99453.03;;;4.77;100.00
75747;BME280;70632;52.232;21.038;2024-02-26T05:47:01;99462.41;;;4.84;100.00
75747;BME280;70632;52.232;21.038;2024-02-26T05:49:27;99449.91;;;4.83;100.00
75747;BME280;70632;52.232;21.038;2024-02-26T05:51:53;99454.53;;;4.81;100.00
75747;BME280;70632;52.232;21.038;2024-02-26T05:54:18;99453.47;;;4.84;100.00
75747;BME280;70632;52.232;21.038;2024-02-26T05:56:44;99450.34;;;4.90;100.00
75747;BME280;70632;52.232;21.038;2024-02-26T05:59:10;99457.09;;;4.96;100.00
75747;BME280;70632;52.232;21.038;2024-02-26T06:01:36;99456.91;;;4.86;100.00
75747;BME280;70632;52.232;21.038;2024-02-26T06:04:01;99465.19;;;4.83;100.00
75747;BME280;70632;52.232;21.038;2024-02-26T06:06:27;99453.78;;;4.92;100.00
75747;BME280;70632;52.232;21.038;2024-02-26T06:08:53;99454.22;;;4.99;100.00
75747;BME280;70632;52.232;21.038;2024-02-26T06:11:19;99458.50;;;5.01;100.00
75747;BME280;70632;52.232;21.038;2024-02-26T06:13:44;99457.97;;;4.96;100.00
75747;BME280;70632;52.232;21.038;2024-02-26T06:16:10;99459.78;;;4.96;100.00
75747;BME280;70632;52.232;21.038;2024-02-26T06:18:36;99457.97;;;4.96;100.00
75747;BME280;70632;52.232;21.038;2024-02-26T06:21:02;99461.41;;;4.98;100.00
75747;BME280;70632;52.232;21.038;2024-02-26T06:23:28;99464.09;;;4.98;100.00
75747;BME280;70632;52.232;21.038;2024-02-26T06:25:54;99469.56;;;4.97;100.00
75747;BME280;70632;52.232;21.038;2024-02-26T06:28:20;99469.25;;;5.01;100.00
75747;BME280;70632;52.232;21.038;2024-02-26T06:30:46;99466.09;;;5.08;100.00
75747;BME280;70632;52.232;21.038;2024-02-26T06:33:11;99468.03;;;5.06;100.00
75747;BME280;70632;52.232;21.038;2024-02-26T06:35:38;99470.09;;;5.15;100.00
75747;BME280;70632;52.232;21.038;2024-02-26T06:38:04;99483.19;;;5.19;100.00
75747;BME280;70632;52.232;21.038;2024-02-26T06:40:30;99466.22;;;5.19;100.00
75747;BME280;70632;52.232;21.038;2024-02-26T06:42:55;99472.34;;;5.21;100.00
75747;BME280;70632;52.232;21.038;2024-02-26T06:45:22;99480.91;;;5.26;100.00
75747;BME280;70632;52.232;21.038;2024-02-26T06:47:47;99483.34;;;5.42;100.00
75747;BME280;70632;52.232;21.038;2024-02-26T06:50:13;99476.03;;;5.44;100.00
75747;BME280;70632;52.232;21.038;2024-02-26T06:52:39;99475.03;;;5.45;100.00
75747;BME280;70632;52.232;21.038;2024-02-26T06:55:05;99479.97;;;5.51;100.00
75747;BME280;70632;52.232;21.038;2024-02-26T06:57:33;99476.06;;;5.55;100.00
75747;BME280;70632;52.232;21.038;2024-02-26T06:59:59;99476.81;;;5.57;100.00
75747;BME280;70632;52.232;21.038;2024-02-26T07:02:25;99490.41;;;5.56;100.00
75747;BME280;70632;52.232;21.038;2024-02-26T07:04:51;99489.81;;;5.63;100.00
75747;BME280;70632;52.232;21.038;2024-02-26T07:07:16;99488.03;;;5.75;100.00
75747;BME280;70632;52.232;21.038;2024-02-26T07:09:44;99487.88;;;5.90;100.00
75747;BME280;70632;52.232;21.038;2024-02-26T07:12:10;99491.28;;;6.04;100.00
75747;BME280;70632;52.232;21.038;2024-02-26T07:14:36;99489.22;;;6.08;100.00
75747;BME280;70632;52.232;21.038;2024-02-26T07:17:03;99490.13;;;6.20;100.00
75747;BME280;70632;52.232;21.038;2024-02-26T07:19:29;99489.81;;;6.36;100.00
75747;BME280;70632;52.232;21.038;2024-02-26T07:21:55;99498.16;;;6.55;100.00
75747;BME280;70632;52.232;21.038;2024-02-26T07:24:21;99492.56;;;6.70;100.00
75747;BME280;70632;52.232;21.038;2024-02-26T07:26:46;99504.59;;;6.88;100.00
75747;BME280;70632;52.232;21.038;2024-02-26T07:29:12;99501.53;;;6.93;99.84
75747;BME280;70632;52.232;21.038;2024-02-26T07:31:38;99504.63;;;6.99;99.84
75747;BME280;70632;52.232;21.038;2024-02-26T07:34:04;99501.66;;;7.25;99.52
75747;BME280;70632;52.232;21.038;2024-02-26T07:36:30;99501.28;;;7.41;97.79
75747;BME280;70632;52.232;21.038;2024-02-26T07:38:55;99503.69;;;7.66;95.94
75747;BME280;70632;52.232;21.038;2024-02-26T07:41:21;99502.25;;;7.95;94.49
75747;BME280;70632;52.232;21.038;2024-02-26T07:43:47;99507.16;;;8.33;92.53
75747;BME280;70632;52.232;21.038;2024-02-26T07:46:14;99507.97;;;8.87;90.91
75747;BME280;70632;52.232;21.038;2024-02-26T07:48:40;99501.66;;;9.38;87.87
75747;BME280;70632;52.232;21.038;2024-02-26T07:51:06;99507.84;;;9.60;85.27
75747;BME280;70632;52.232;21.038;2024-02-26T07:53:32;99497.81;;;10.11;83.70
75747;BME280;70632;52.232;21.038;2024-02-26T07:55:58;99509.63;;;10.78;79.75
75747;BME280;70632;52.232;21.038;2024-02-26T07:58:24;99507.47;;;11.38;76.71
75747;BME280;70632;52.232;21.038;2024-02-26T08:00:49;99508.88;;;11.98;73.58
75747;BME280;70632;52.232;21.038;2024-02-26T08:03:15;99507.53;;;12.74;71.47
75747;BME280;70632;52.232;21.038;2024-02-26T08:05:42;99503.56;;;13.20;68.62
75747;BME280;70632;52.232;21.038;2024-02-26T08:08:09;99508.84;;;13.82;65.24
75747;BME280;70632;52.232;21.038;2024-02-26T08:10:34;99503.56;;;13.89;64.37
75747;BME280;70632;52.232;21.038;2024-02-26T08:13:00;99507.06;;;14.32;61.56
75747;BME280;70632;52.232;21.038;2024-02-26T08:15:32;99507.91;;;14.41;61.60
75747;BME280;70632;52.232;21.038;2024-02-26T08:18:03;99513.06;;;14.93;60.54
75747;BME280;70632;52.232;21.038;2024-02-26T08:20:32;99524.63;;;15.28;59.67
75747;BME280;70632;52.232;21.038;2024-02-26T08:22:58;99522.44;;;15.79;57.32
75747;BME280;70632;52.232;21.038;2024-02-26T08:25:24;99515.19;;;16.18;55.32
75747;BME280;70632;52.232;21.038;2024-02-26T08:27:51;99510.41;;;16.66;53.75
75747;BME280;70632;52.232;21.038;2024-02-26T08:30:17;99511.16;;;16.83;52.81
75747;BME280;70632;52.232;21.038;2024-02-26T08:32:44;99516.22;;;17.09;53.16
75747;BME280;70632;52.232;21.038;2024-02-26T08:35:10;99517.38;;;17.44;51.35
75747;BME280;70632;52.232;21.038;2024-02-26T08:37:36;99520.28;;;17.28;51.41
75747;BME280;70632;52.232;21.038;2024-02-26T08:40:02;99524.94;;;17.42;51.21
75747;BME280;70632;52.232;21.038;2024-02-26T08:42:29;99524.00;;;17.50;50.87
75747;BME280;70632;52.232;21.038;2024-02-26T08:44:55;99526.06;;;17.48;50.30
75747;BME280;70632;52.232;21.038;2024-02-26T08:47:21;99528.41;;;17.81;50.52
75747;BME280;70632;52.232;21.038;2024-02-26T08:49:47;99523.53;;;18.27;48.11
75747;BME280;70632;52.232;21.038;2024-02-26T08:52:13;99531.84;;;18.77;47.84
75747;BME280;70632;52.232;21.038;2024-02-26T08:54:39;99532.50;;;18.36;47.52
75747;BME280;70632;52.232;21.038;2024-02-26T08:57:06;99532.50;;;18.58;47.90
75747;BME280;70632;52.232;21.038;2024-02-26T08:59:32;99524.41;;;19.21;46.26
75747;BME280;70632;52.232;21.038;2024-02-26T09:01:58;99531.22;;;19.88;44.39
75747;BME280;70632;52.232;21.038;2024-02-26T09:04:23;99516.53;;;19.74;44.58
75747;BME280;70632;52.232;21.038;2024-02-26T09:06:49;99522.19;;;20.07;44.52
75747;BME280;70632;52.232;21.038;2024-02-26T09:09:15;99532.59;;;20.12;43.75
75747;BME280;70632;52.232;21.038;2024-02-26T09:11:41;99536.16;;;20.06;43.75
75747;BME280;70632;52.232;21.038;2024-02-26T09:14:06;99536.81;;;19.38;45.37
75747;BME280;70632;52.232;21.038;2024-02-26T09:16:32;99544.41;;;17.77;49.06
75747;BME280;70632;52.232;21.038;2024-02-26T09:18:58;99537.88;;;16.73;52.36
75747;BME280;70632;52.232;21.038;2024-02-26T09:21:24;99545.72;;;15.98;54.99
75747;BME280;70632;52.232;21.038;2024-02-26T09:23:50;99543.34;;;15.39;57.45
75747;BME280;70632;52.232;21.038;2024-02-26T09:26:16;99542.72;;;15.13;58.96
75747;BME280;70632;52.232;21.038;2024-02-26T09:28:42;99548.03;;;14.98;64.32
75747;BME280;70632;52.232;21.038;2024-02-26T09:31:08;99547.53;;;14.78;65.32
75747;BME280;70632;52.232;21.038;2024-02-26T09:33:34;99544.47;;;14.56;65.10
75747;BME280;70632;52.232;21.038;2024-02-26T09:36:01;99549.47;;;14.18;66.35
75747;BME280;70632;52.232;21.038;2024-02-26T09:38:27;99542.97;;;14.11;66.44
75747;BME280;70632;52.232;21.038;2024-02-26T09:40:53;99536.53;;;14.37;66.20
75747;BME280;70632;52.232;21.038;2024-02-26T09:43:22;99538.56;;;14.18;65.55
75747;BME280;70632;52.232;21.038;2024-02-26T09:45:53;99539.00;;;13.89;67.19
75747;BME280;70632;52.232;21.038;2024-02-26T09:48:19;99544.84;;;13.60;68.04
75747;BME280;70632;52.232;21.038;2024-02-26T09:50:46;99550.84;;;13.37;69.76
75747;BME280;70632;52.232;21.038;2024-02-26T09:53:12;99552.56;;;13.20;70.40
75747;BME280;70632;52.232;21.038;2024-02-26T09:55:39;99550.06;;;13.01;71.54
75747;BME280;70632;52.232;21.038;2024-02-26T09:58:05;99551.19;;;12.90;71.51
75747;BME280;70632;52.232;21.038;2024-02-26T10:00:32;99558.03;;;12.76;72.64
75747;BME280;70632;52.232;21.038;2024-02-26T10:03:04;99568.53;;;12.53;72.52
75747;BME280;70632;52.232;21.038;2024-02-26T10:05:31;99570.31;;;12.26;73.78
75747;BME280;70632;52.232;21.038;2024-02-26T10:07:57;99566.88;;;12.06;75.50
75747;BME280;70632;52.232;21.038;2024-02-26T10:10:24;99567.25;;;11.94;75.72
75747;BME280;70632;52.232;21.038;2024-02-26T10:12:50;99579.28;;;11.81;76.35
75747;BME280;70632;52.232;21.038;2024-02-26T10:15:16;99573.91;;;11.62;77.31
75747;BME280;70632;52.232;21.038;2024-02-26T10:17:42;99573.34;;;11.58;77.80
75747;BME280;70632;52.232;21.038;2024-02-26T10:20:16;99559.78;;;11.58;78.18
75747;BME280;70632;52.232;21.038;2024-02-26T10:22:50;99567.59;;;11.34;77.91
75747;BME280;70632;52.232;21.038;2024-02-26T10:25:17;99564.34;;;11.20;79.40
75747;BME280;70632;52.232;21.038;2024-02-26T10:27:43;99577.81;;;11.02;80.69
75747;BME280;70632;52.232;21.038;2024-02-26T10:30:20;99570.97;;;10.88;81.42
75747;BME280;70632;52.232;21.038;2024-02-26T10:32:47;99585.13;;;10.82;81.30
75747;BME280;70632;52.232;21.038;2024-02-26T10:35:14;99584.56;;;10.79;81.08
75747;BME280;70632;52.232;21.038;2024-02-26T10:37:41;99574.72;;;10.87;81.86
75747;BME280;70632;52.232;21.038;2024-02-26T10:40:11;99587.25;;;10.88;80.79
75747;BME280;70632;52.232;21.038;2024-02-26T10:42:36;99582.41;;;10.82;80.85
75747;BME280;70632;52.232;21.038;2024-02-26T10:45:07;99580.41;;;10.84;81.83
75747;BME280;70632;52.232;21.038;2024-02-26T10:47:35;99572.00;;;10.87;80.75
75747;BME280;70632;52.232;21.038;2024-02-26T10:50:02;99582.84;;;10.87;80.94
75747;BME280;70632;52.232;21.038;2024-02-26T10:52:31;99570.88;;;10.71;81.59
75747;BME280;70632;52.232;21.038;2024-02-26T10:55:02;99568.56;;;10.76;81.71
75747;BME280;70632;52.232;21.038;2024-02-26T10:57:35;99570.84;;;10.80;81.07
75747;BME280;70632;52.232;21.038;2024-02-26T11:00:03;99571.84;;;10.89;80.85
75747;BME280;70632;52.232;21.038;2024-02-26T11:02:35;99566.38;;;11.08;79.71
75747;BME280;70632;52.232;21.038;2024-02-26T11:05:06;99570.88;;;11.37;78.06
75747;BME280;70632;52.232;21.038;2024-02-26T11:07:35;99565.38;;;11.57;77.77
75747;BME280;70632;52.232;21.038;2024-02-26T11:10:05;99570.81;;;11.57;76.47
75747;BME280;70632;52.232;21.038;2024-02-26T11:12:32;99560.97;;;11.83;75.15
75747;BME280;70632;52.232;21.038;2024-02-26T11:15:01;99567.84;;;11.78;74.33
75747;BME280;70632;52.232;21.038;2024-02-26T11:17:28;99550.28;;;11.72;74.13
75747;BME280;70632;52.232;21.038;2024-02-26T11:19:58;99565.84;;;11.80;73.99
75747;BME280;70632;52.232;21.038;2024-02-26T11:22:25;99558.53;;;11.80;74.06
75747;BME280;70632;52.232;21.038;2024-02-26T11:24:55;99554.88;;;11.99;73.01
75747;BME280;70632;52.232;21.038;2024-02-26T11:27:28;99560.69;;;12.14;72.59
75747;BME280;70632;52.232;21.038;2024-02-26T11:29:56;99544.00;;;12.45;70.86
75747;BME280;70632;52.232;21.038;2024-02-26T11:32:29;99561.47;;;12.60;70.49
75747;BME280;70632;52.232;21.038;2024-02-26T11:34:56;99558.81;;;12.68;69.83
75747;BME280;70632;52.232;21.038;2024-02-26T11:37:23;99554.59;;;12.92;69.77
75747;BME280;70632;52.232;21.038;2024-02-26T11:39:51;99551.41;;;13.23;69.72
75747;BME280;70632;52.232;21.038;2024-02-26T11:42:17;99558.50;;;13.68;67.30
75747;BME280;70632;52.232;21.038;2024-02-26T11:44:47;99543.94;;;13.94;66.21
75747;BME280;70632;52.232;21.038;2024-02-26T11:47:18;99534.63;;;14.13;64.67
75747;BME280;70632;52.232;21.038;2024-02-26T11:49:44;99548.06;;;14.06;64.11
75747;BME280;70632;52.232;21.038;2024-02-26T11:52:10;99540.06;;;14.13;64.91
75747;BME280;70632;52.232;21.038;2024-02-26T11:54:50;99523.94;;;14.27;62.13
75747;BME280;70632;52.232;21.038;2024-02-26T11:57:22;99528.72;;;14.25;62.46
75747;BME280;70632;52.232;21.038;2024-02-26T11:59:48;99533.03;;;13.94;63.57
75747;BME280;70632;52.232;21.038;2024-02-26T12:05:15;99543.06;;;13.24;65.48
75747;BME280;70632;52.232;21.038;2024-02-26T12:07:44;99545.22;;;13.13;65.83
75747;BME280;70632;52.232;21.038;2024-02-26T12:10:33;99544.63;;;13.01;66.75
75747;BME280;70632;52.232;21.038;2024-02-26T12:13:14;99539.06;;;12.84;67.61
75747;BME280;70632;52.232;21.038;2024-02-26T12:15:56;99547.59;;;12.89;67.68
75747;BME280;70632;52.232;21.038;2024-02-26T12:18:23;99537.38;;;13.09;67.92
75747;BME280;70632;52.232;21.038;2024-02-26T12:21:02;99551.91;;;13.44;66.00
75747;BME280;70632;52.232;21.038;2024-02-26T12:23:29;99544.63;;;13.53;65.56
75747;BME280;70632;52.232;21.038;2024-02-26T12:26:01;99530.25;;;13.77;64.66
75747;BME280;70632;52.232;21.038;2024-02-26T12:28:31;99535.63;;;14.03;64.61
75747;BME280;70632;52.232;21.038;2024-02-26T12:30:57;99536.53;;;14.20;64.06
75747;BME280;70632;52.232;21.038;2024-02-26T12:33:25;99534.00;;;14.43;62.71
75747;BME280;70632;52.232;21.038;2024-02-26T12:35:52;99545.47;;;14.72;61.13
75747;BME280;70632;52.232;21.038;2024-02-26T12:38:18;99535.59;;;14.87;59.21
75747;BME280;70632;52.232;21.038;2024-02-26T12:40:45;99532.34;;;15.00;59.46
75747;BME280;70632;52.232;21.038;2024-02-26T12:43:11;99533.34;;;15.07;59.58
75747;BME280;70632;52.232;21.038;2024-02-26T12:45:41;99534.38;;;15.14;58.70
75747;BME280;70632;52.232;21.038;2024-02-26T12:48:08;99538.97;;;15.22;59.25
75747;BME280;70632;52.232;21.038;2024-02-26T12:50:34;99529.19;;;15.27;58.44
75747;BME280;70632;52.232;21.038;2024-02-26T12:53:00;99533.66;;;15.20;58.10
75747;BME280;70632;52.232;21.038;2024-02-26T12:55:26;99528.06;;;15.14;58.38
75747;BME280;70632;52.232;21.038;2024-02-26T12:57:53;99534.88;;;15.09;58.47
75747;BME280;70632;52.232;21.038;2024-02-26T13:00:25;99536.25;;;15.22;57.29
75747;BME280;70632;52.232;21.038;2024-02-26T13:02:52;99537.19;;;15.45;56.98
75747;BME280;70632;52.232;21.038;2024-02-26T13:05:20;99538.03;;;15.46;56.32
75747;BME280;70632;52.232;21.038;2024-02-26T13:07:46;99546.53;;;15.59;56.23
75747;BME280;70632;52.232;21.038;2024-02-26T13:10:17;99540.53;;;15.64;56.46
75747;BME280;70632;52.232;21.038;2024-02-26T13:12:48;99546.72;;;15.58;55.42
75747;BME280;70632;52.232;21.038;2024-02-26T13:15:20;99535.25;;;15.62;55.59
75747;BME280;70632;52.232;21.038;2024-02-26T13:17:47;99533.69;;;15.68;55.15
75747;BME280;70632;52.232;21.038;2024-02-26T13:20:25;99534.75;;;15.67;55.76
75747;BME280;70632;52.232;21.038;2024-02-26T13:22:51;99531.81;;;15.77;55.42
75747;BME280;70632;52.232;21.038;2024-02-26T13:25:20;99528.03;;;15.86;54.81
75747;BME280;70632;52.232;21.038;2024-02-26T13:27:46;99527.13;;;15.94;54.42
75747;BME280;70632;52.232;21.038;2024-02-26T13:30:12;99523.69;;;16.00;54.00
75747;BME280;70632;52.232;21.038;2024-02-26T13:32:40;99527.50;;;16.14;53.40
75747;BME280;70632;52.232;21.038;2024-02-26T13:35:11;99531.13;;;16.14;52.58
75747;BME280;70632;52.232;21.038;2024-02-26T13:37:39;99527.28;;;16.23;52.10
75747;BME280;70632;52.232;21.038;2024-02-26T13:40:09;99541.09;;;16.30;51.53
75747;BME280;70632;52.232;21.038;2024-02-26T13:42:36;99537.69;;;16.28;51.39
75747;BME280;70632;52.232;21.038;2024-02-26T13:45:02;99539.56;;;16.27;51.33
75747;BME280;70632;52.232;21.038;2024-02-26T13:47:28;99541.97;;;16.31;50.50
75747;BME280;70632;52.232;21.038;2024-02-26T13:49:54;99541.72;;;16.09;51.74
75747;BME280;70632;52.232;21.038;2024-02-26T13:52:19;99544.25;;;16.19;52.15
75747;BME280;70632;52.232;21.038;2024-02-26T13:54:46;99534.66;;;16.23;51.62
75747;BME280;70632;52.232;21.038;2024-02-26T13:57:12;99534.22;;;16.34;51.71
75747;BME280;70632;52.232;21.038;2024-02-26T13:59:38;99535.84;;;16.52;51.46
75747;BME280;70632;52.232;21.038;2024-02-26T14:02:08;99527.69;;;16.66;51.42
75747;BME280;70632;52.232;21.038;2024-02-26T14:04:34;99518.69;;;16.81;51.07
75747;BME280;70632;52.232;21.038;2024-02-26T14:07:00;99517.59;;;16.90;50.07
75747;BME280;70632;52.232;21.038;2024-02-26T14:09:26;99520.34;;;16.90;50.79
75747;BME280;70632;52.232;21.038;2024-02-26T14:11:52;99523.28;;;16.80;51.13
75747;BME280;70632;52.232;21.038;2024-02-26T14:14:18;99521.28;;;16.74;50.65
75747;BME280;70632;52.232;21.038;2024-02-26T14:16:43;99526.66;;;16.67;51.91
75747;BME280;70632;52.232;21.038;2024-02-26T14:19:09;99518.31;;;16.61;51.55
75747;BME280;70632;52.232;21.038;2024-02-26T14:21:35;99512.84;;;16.61;51.68
75747;BME280;70632;52.232;21.038;2024-02-26T14:24:01;99514.91;;;16.59;52.69
75747;BME280;70632;52.232;21.038;2024-02-26T14:26:26;99525.19;;;16.57;52.41
75747;BME280;70632;52.232;21.038;2024-02-26T14:28:52;99529.19;;;16.46;51.95
75747;BME280;70632;52.232;21.038;2024-02-26T14:31:18;99521.16;;;16.44;52.23
75747;BME280;70632;52.232;21.038;2024-02-26T14:33:44;99521.06;;;16.38;52.02
75747;BME280;70632;52.232;21.038;2024-02-26T14:36:10;99526.41;;;16.31;52.59
75747;BME280;70632;52.232;21.038;2024-02-26T14:38:37;99519.72;;;16.34;52.77
75747;BME280;70632;52.232;21.038;2024-02-26T14:41:03;99509.00;;;16.24;52.85
75747;BME280;70632;52.232;21.038;2024-02-26T14:43:29;99527.00;;;16.18;53.12
75747;BME280;70632;52.232;21.038;2024-02-26T14:45:57;99517.41;;;16.22;52.75
75747;BME280;70632;52.232;21.038;2024-02-26T14:48:23;99525.66;;;16.14;52.68
75747;BME280;70632;52.232;21.038;2024-02-26T14:50:49;99520.44;;;15.96;53.41
75747;BME280;70632;52.232;21.038;2024-02-26T14:53:15;99532.09;;;15.90;53.28
75747;BME280;70632;52.232;21.038;2024-02-26T14:55:40;99535.72;;;15.82;53.40